Time;durP1;ratioP1;P1;durP2;ratioP2;P2;SDS_P1;SDS_P2;PMS_P1;PMS_P2;Temp;Humidity;BMP_temperature;BMP_pressure;BME280_temperature;BME280_humidity;BME280_pressure;Samples;Min_cycle;Max_cycle;Signal;HPM_P1;HPM_P2
2022/01/19 00:01:18;;;;;;;4.47;4.07;;;;;;;22.23;23.85;96274.63;7294353;19;136909;-60
2022/01/19 00:03:44;;;;;;;4.80;4.40;;;;;;;22.23;24.09;96271.97;7293598;19;136962;-58
2022/01/19 00:06:09;;;;;;;4.90;3.97;;;;;;;22.23;23.43;96282.63;7291661;19;137535;-58
2022/01/19 00:08:35;;;;;;;4.63;4.23;;;;;;;22.23;23.51;96287.94;7278041;19;137486;-58
2022/01/19 00:11:01;;;;;;;4.90;4.20;;;;;;;22.23;24.00;96297.78;7292141;19;137452;-57
2022/01/19 00:13:27;;;;;;;3.80;3.50;;;;;;;22.23;23.46;96303.91;7291548;19;138074;-58
2022/01/19 00:15:53;;;;;;;4.60;4.30;;;;;;;22.22;23.50;96304.97;7293351;19;137436;-59
2022/01/19 00:18:22;;;;;;;4.40;3.97;;;;;;;22.24;23.43;96302.84;7293266;19;137727;-56
2022/01/19 00:20:49;;;;;;;4.23;3.83;;;;;;;22.23;24.01;96301.25;7277108;19;137018;-60
2022/01/19 00:23:16;;;;;;;4.57;4.17;;;;;;;22.24;23.45;96304.72;7293254;19;137277;-56
2022/01/19 00:25:42;;;;;;;3.77;3.47;;;;;;;22.23;23.34;96295.94;7292738;19;137578;-56
2022/01/19 00:28:09;;;;;;;3.77;3.47;;;;;;;22.24;23.83;96296.72;7295034;19;137642;-57
2022/01/19 00:30:34;;;;;;;4.80;4.30;;;;;;;22.24;23.94;96291.41;7285125;19;136690;-57
2022/01/19 00:33:00;;;;;;;3.93;3.60;;;;;;;22.22;23.84;96302.31;7299630;19;137118;-57
2022/01/19 00:35:25;;;;;;;3.83;3.50;;;;;;;22.22;23.37;96302.31;7299694;19;137295;-57
2022/01/19 00:37:51;;;;;;;3.97;3.67;;;;;;;22.23;23.37;96319.88;7300232;19;138147;-57
2022/01/19 00:40:17;;;;;;;4.00;3.70;;;;;;;22.20;23.45;96310.56;7300308;19;137387;-57
2022/01/19 00:42:43;;;;;;;3.90;3.50;;;;;;;22.23;23.76;96314.56;7286426;19;137185;-56
2022/01/19 00:45:11;;;;;;;4.20;3.80;;;;;;;22.23;23.15;96316.44;7298635;19;138124;-58
2022/01/19 00:47:37;;;;;;;4.23;3.93;;;;;;;22.22;23.16;96312.97;7297204;19;138865;-56
2022/01/19 00:50:05;;;;;;;4.63;4.10;;;;;;;22.23;23.26;96316.44;7299297;19;137172;-57
2022/01/19 00:52:31;;;;;;;3.70;3.40;;;;;;;22.20;23.32;96331.88;7285284;19;137067;-59
2022/01/19 00:54:56;;;;;;;3.90;3.60;;;;;;;22.22;23.24;96339.59;7299374;19;137808;-59
2022/01/19 00:57:22;;;;;;;4.27;3.87;;;;;;;22.21;23.49;96335.34;7299283;19;137326;-60
2022/01/19 00:59:47;;;;;;;4.10;3.53;;;;;;;22.21;23.58;96338.00;7298273;19;138492;-57
2022/01/19 01:02:13;;;;;;;3.60;3.30;;;;;;;22.18;23.25;96331.34;7298695;19;137279;-57
2022/01/19 01:04:38;;;;;;;4.03;3.73;;;;;;;22.20;23.67;96341.72;7285605;19;137817;-57
2022/01/19 01:07:04;;;;;;;3.83;3.50;;;;;;;22.20;23.18;96341.72;7297095;19;138665;-56
2022/01/19 01:09:30;;;;;;;3.83;3.50;;;;;;;22.20;23.35;96339.88;7299546;19;137437;-58
2022/01/19 01:12:01;;;;;;;4.03;3.60;;;;;;;22.20;23.23;96344.38;7297607;19;137511;-56
2022/01/19 01:18:18;;;;;;;3.93;3.50;;;;;;;22.19;23.26;96343.59;7299572;19;137003;-57
2022/01/19 01:20:04;;;;;;;3.97;3.57;;;;;;;22.20;23.09;96337.19;7297382;19;137479;-56
2022/01/19 01:22:30;;;;;;;4.10;3.67;;;;;;;22.19;23.28;96329.47;7299445;19;137527;-56
2022/01/19 01:24:56;;;;;;;3.93;3.63;;;;;;;22.18;23.63;96326.03;7285669;19;137489;-57
2022/01/19 01:27:21;;;;;;;4.30;4.00;;;;;;;22.17;23.36;96323.59;7297075;19;136950;-57
2022/01/19 01:29:47;;;;;;;3.63;3.33;;;;;;;22.18;23.65;96322.56;7298098;19;136642;-57
2022/01/19 01:32:12;;;;;;;3.87;3.57;;;;;;;22.16;23.34;96306.84;7298471;19;137459;-58
2022/01/19 01:34:38;;;;;;;4.03;3.40;;;;;;;22.16;23.69;96319.34;7297988;19;136877;-60
2022/01/19 01:37:04;;;;;;;4.43;3.47;;;;;;;22.17;23.83;96315.63;7286192;19;138384;-57
2022/01/19 01:39:29;;;;;;;4.10;3.50;;;;;;;22.17;23.69;96316.44;7296913;19;137102;-57
2022/01/19 01:41:55;;;;;;;4.30;3.90;;;;;;;22.16;23.19;96314.03;7298224;19;136903;-57
2022/01/19 01:44:21;;;;;;;4.20;3.90;;;;;;;22.16;23.63;96314.03;7297740;19;137472;-56
2022/01/19 01:46:50;;;;;;;4.10;3.70;;;;;;;22.15;23.39;96310.56;7293222;19;136890;-57
2022/01/19 01:49:25;;;;;;;4.20;3.83;;;;;;;22.15;23.47;96304.44;7293835;19;137211;-58
2022/01/19 01:54:35;;;;;;;3.90;3.60;;;;;;;22.15;23.31;96296.47;7297915;19;136920;-56
2022/01/19 01:57:00;;;;;;;4.57;3.70;;;;;;;22.14;23.60;96294.88;7296507;19;136995;-56
2022/01/19 01:59:26;;;;;;;3.90;3.50;;;;;;;22.14;23.53;96297.53;7285309;19;138263;-56
2022/01/19 02:01:51;;;;;;;3.83;3.50;;;;;;;22.13;23.10;96296.72;7297801;19;137257;-58
2022/01/19 02:04:21;;;;;;;4.47;4.07;;;;;;;22.13;23.20;96299.38;7296623;19;138916;-59
2022/01/19 02:07:12;;;;;;;3.63;3.33;;;;;;;22.12;23.15;96286.34;7295381;19;137057;-56
2022/01/19 02:09:38;;;;;;;3.97;3.60;;;;;;;22.14;23.36;96286.88;7283898;19;137564;-58
2022/01/19 02:23:23;;;;;;;3.80;3.50;;;;;;;22.12;22.97;96257.06;7297670;19;136701;-58
2022/01/19 02:25:51;;;;;;;3.90;3.60;;;;;;;22.11;23.16;96252.81;7296975;19;137512;-56
2022/01/19 02:36:38;;;;;;;3.50;3.20;;;;;;;22.10;23.55;96238.72;7297754;19;137650;-56
2022/01/19 02:41:51;;;;;;;3.27;2.97;;;;;;;22.10;23.06;96241.38;7291779;19;137091;-57
2022/01/19 02:44:33;;;;;;;3.70;3.40;;;;;;;22.11;23.01;96255.47;7289888;19;137122;-57
2022/01/19 02:49:44;;;;;;;3.60;3.30;;;;;;;22.11;22.90;96250.16;7296050;19;137023;-56
2022/01/19 02:52:10;;;;;;;3.50;3.20;;;;;;;22.11;23.27;96250.16;7290995;19;136832;-56
2022/01/19 02:54:36;;;;;;;3.77;3.27;;;;;;;22.09;23.55;96250.44;7282532;19;137048;-56
2022/01/19 02:57:03;;;;;;;3.10;2.80;;;;;;;22.11;23.05;96244.84;7295147;19;138225;-56
2022/01/19 03:00:00;;;;;;;3.30;3.00;;;;;;;22.11;23.07;96260.81;7296328;19;136916;-59
2022/01/19 03:10:33;;;;;;;3.00;2.80;;;;;;;22.09;22.84;96245.09;7294743;19;138068;-57
2022/01/19 03:12:59;;;;;;;2.87;2.67;;;;;;;22.10;22.86;96243.25;7294587;19;137133;-57
2022/01/19 03:15:25;;;;;;;3.60;3.07;;;;;;;22.10;22.83;96251.22;7282924;19;139949;-57
2022/01/19 03:17:50;;;;;;;4.57;3.50;;;;;;;22.10;23.10;96246.69;7295456;19;137211;-56
2022/01/19 03:20:16;;;;;;;3.80;3.50;;;;;;;22.09;22.92;96252.28;7294597;19;137061;-55
2022/01/19 03:23:20;;;;;;;3.63;3.27;;;;;;;22.08;22.73;96262.16;7295751;19;137573;-57
2022/01/19 03:25:37;;;;;;;3.43;3.13;;;;;;;22.09;23.30;96258.41;7294739;19;137104;-56
2022/01/19 03:28:04;;;;;;;3.33;3.00;;;;;;;22.09;22.92;96254.97;7281374;19;137303;-56
2022/01/19 03:30:30;;;;;;;3.30;3.10;;;;;;;22.08;23.17;96251.50;7294570;19;138381;-56
2022/01/19 03:32:55;;;;;;;3.07;2.83;;;;;;;22.09;23.07;96247.78;7294690;19;137241;-55
2022/01/19 03:35:21;;;;;;;3.60;3.30;;;;;;;22.10;23.46;96252.03;7294262;19;136977;-57
2022/01/19 03:37:47;;;;;;;3.60;3.30;;;;;;;22.10;23.28;96253.88;7280270;19;137553;-56
2022/01/19 03:40:12;;;;;;;3.70;3.40;;;;;;;22.10;22.80;96252.03;7294091;19;137296;-60
2022/01/19 03:42:38;;;;;;;3.57;3.23;;;;;;;22.10;23.38;96257.34;7294013;19;136820;-56
2022/01/19 03:45:06;;;;;;;3.53;3.23;;;;;;;22.11;23.05;96266.13;7294284;19;138268;-56
2022/01/19 03:47:39;;;;;;;3.30;3.00;;;;;;;22.10;23.02;96261.88;7294965;19;138421;-56
2022/01/19 03:50:06;;;;;;;3.13;2.83;;;;;;;22.10;23.22;96267.19;7280657;19;139941;-56
2022/01/19 03:52:31;;;;;;;3.10;2.90;;;;;;;22.10;23.10;96259.22;7290493;19;137705;-57
2022/01/19 03:54:57;;;;;;;3.20;2.80;;;;;;;22.10;23.06;96268.00;7294529;19;137114;-56
2022/01/19 03:57:22;;;;;;;3.13;2.87;;;;;;;22.10;22.63;96267.19;7293013;19;137362;-56
2022/01/19 03:59:48;;;;;;;3.13;2.77;;;;;;;22.10;22.80;96285.81;7279932;19;138898;-56
2022/01/19 04:02:14;;;;;;;3.90;3.23;;;;;;;22.10;23.11;96280.50;7292555;19;137468;-56
2022/01/19 04:04:48;;;;;;;4.57;3.40;;;;;;;22.12;23.22;96270.38;7299909;19;136933;-56
2022/01/19 04:07:15;;;;;;;3.17;2.87;;;;;;;22.13;22.88;96270.13;7301855;19;138746;-56
2022/01/19 04:09:45;;;;;;;3.63;3.23;;;;;;;22.13;23.41;96279.97;7300381;19;137308;-57
2022/01/19 04:12:16;;;;;;;3.10;2.90;;;;;;;22.13;23.02;96279.97;7282340;19;137376;-57
2022/01/19 04:14:41;;;;;;;2.87;2.67;;;;;;;22.13;22.79;96286.09;7301416;19;137446;-58
2022/01/19 04:17:13;;;;;;;2.97;2.67;;;;;;;22.13;23.10;96295.94;7299153;19;140049;-57
2022/01/19 04:22:06;;;;;;;4.53;2.93;;;;;;;22.05;23.41;96301.81;7286710;19;136848;-60
2022/01/19 04:24:33;;;;;;;4.13;2.50;;;;;;;22.03;23.68;96298.59;7301221;19;137727;-57
2022/01/19 04:29:46;;;;;;;2.83;2.60;;;;;;;21.99;23.59;96294.84;7300686;19;137330;-58
2022/01/19 04:32:20;;;;;;;3.80;2.77;;;;;;;21.99;23.37;96289.53;7286493;19;137332;-57
2022/01/19 04:34:48;;;;;;;4.87;3.17;;;;;;;21.91;23.54;96296.19;7299251;19;137667;-57
2022/01/19 05:01:47;;;;;;;5.37;3.70;;;;;;;22.12;21.06;96319.09;7297034;19;137260;-57
2022/01/19 05:06:48;;;;;;;3.47;3.17;;;;;;;22.26;20.71;96329.19;7283361;19;136923;-57
2022/01/19 05:14:53;;;;;;;6.10;3.37;;;;;;;22.39;21.32;96344.63;7295508;19;137480;-58
2022/01/19 05:17:18;;;;;;;4.93;3.60;;;;;;;22.47;21.63;96333.41;7284766;19;137127;-58
2022/01/19 05:19:44;;;;;;;3.53;3.13;;;;;;;22.48;21.75;96325.16;7299283;19;136920;-58
2022/01/19 05:22:09;;;;;;;4.30;3.23;;;;;;;22.44;21.82;96321.44;7296483;19;137085;-57
2022/01/19 05:24:35;;;;;;;6.57;3.50;;;;;;;22.43;21.90;96321.72;7295611;19;137457;-55
2022/01/19 05:27:00;;;;;;;4.33;3.03;;;;;;;22.41;22.27;96335.31;7299075;19;136837;-56
2022/01/19 05:29:26;;;;;;;4.33;3.70;;;;;;;22.42;21.92;96342.22;7285517;19;136916;-57
2022/01/19 05:31:51;;;;;;;4.30;3.73;;;;;;;22.40;22.08;96349.69;7296045;19;137253;-55
2022/01/19 05:34:16;;;;;;;4.00;3.10;;;;;;;22.39;22.74;96353.41;7298418;19;137300;-55
2022/01/19 05:36:42;;;;;;;3.93;2.70;;;;;;;22.40;22.61;96355.00;7294385;19;137279;-58
2022/01/19 05:39:08;;;;;;;5.30;3.23;;;;;;;22.40;22.09;96351.53;7279981;19;138958;-57
2022/01/19 05:41:34;;;;;;;3.80;3.23;;;;;;;22.39;22.70;96364.06;7293627;19;137397;-57
2022/01/19 05:44:00;;;;;;;3.30;3.00;;;;;;;22.40;22.51;96359.53;7293406;19;136947;-57
2022/01/19 05:46:25;;;;;;;3.30;3.00;;;;;;;22.40;22.05;96367.53;7292921;19;137435;-56
2022/01/19 05:48:51;;;;;;;3.93;3.20;;;;;;;22.35;22.37;96373.66;7293834;19;137216;-57
2022/01/19 05:51:17;;;;;;;3.40;3.10;;;;;;;22.26;22.63;96377.13;7282368;19;139404;-58
2022/01/19 05:53:42;;;;;;;3.93;3.40;;;;;;;22.18;22.99;96375.81;7297156;19;137737;-58
2022/01/19 05:56:08;;;;;;;3.50;3.20;;;;;;;22.15;23.26;96384.28;7298161;19;136773;-56
2022/01/19 05:58:33;;;;;;;4.40;3.47;;;;;;;22.12;22.61;96380.31;7297362;19;137790;-56
2022/01/19 06:00:59;;;;;;;3.27;2.93;;;;;;;22.09;22.81;96382.72;7284424;19;137078;-56
2022/01/19 06:03:25;;;;;;;4.20;3.80;;;;;;;22.08;23.08;96381.91;7297045;19;136978;-56
2022/01/19 06:05:51;;;;;;;3.30;2.97;;;;;;;22.07;22.61;96390.97;7295531;19;137029;-57
2022/01/19 06:08:28;;;;;;;4.47;3.80;;;;;;;22.05;23.06;96384.31;7297530;19;138209;-57
2022/01/19 06:10:57;;;;;;;4.27;3.50;;;;;;;22.03;23.06;96381.88;7296947;19;138573;-62
2022/01/19 06:13:24;;;;;;;3.57;3.27;;;;;;;22.03;23.07;96378.44;7285036;19;139822;-56
2022/01/19 06:15:50;;;;;;;3.77;3.47;;;;;;;22.03;22.83;96383.75;7297121;19;137806;-56
2022/01/19 06:18:17;;;;;;;4.37;3.70;;;;;;;22.02;23.36;96395.47;7296584;19;138045;-59
2022/01/19 06:20:44;;;;;;;6.23;4.10;;;;;;;22.00;23.52;96392.25;7295071;19;137501;-56
2022/01/19 06:23:10;;;;;;;6.87;4.20;;;;;;;21.99;23.49;96396.78;7285263;19;137853;-57
2022/01/19 06:25:35;;;;;;;5.43;3.83;;;;;;;21.98;22.92;96394.38;7295482;19;137000;-57
2022/01/19 06:28:02;;;;;;;6.83;3.90;;;;;;;21.99;23.35;96403.97;7296781;19;137181;-56
2022/01/19 06:30:28;;;;;;;4.77;3.50;;;;;;;21.97;23.15;96404.22;7297373;19;137621;-57
2022/01/19 06:32:54;;;;;;;5.23;3.83;;;;;;;21.97;22.93;96398.91;7293331;19;137077;-58
2022/01/19 06:35:20;;;;;;;6.90;4.10;;;;;;;21.97;23.62;96406.09;7283440;19;137818;-57
2022/01/19 06:37:46;;;;;;;6.03;3.77;;;;;;;21.96;23.26;96404.50;7297601;19;137386;-56
2022/01/19 06:40:13;;;;;;;4.60;3.90;;;;;;;21.98;22.90;96413.81;7296129;19;137581;-56
2022/01/19 06:42:39;;;;;;;5.10;3.90;;;;;;;21.98;23.08;96405.03;7297248;19;137173;-56
2022/01/19 06:45:05;;;;;;;4.20;3.20;;;;;;;21.97;23.32;96411.41;7282854;19;136864;-56
2022/01/19 06:47:31;;;;;;;5.47;3.90;;;;;;;21.97;23.64;96409.53;7295859;19;137312;-56
2022/01/19 06:49:57;;;;;;;3.73;3.10;;;;;;;21.97;23.12;96408.75;7296444;19;138388;-57
2022/01/19 06:52:23;;;;;;;5.30;3.90;;;;;;;21.94;23.75;96402.09;7294175;19;136946;-58
2022/01/19 06:54:49;;;;;;;4.40;3.60;;;;;;;21.96;23.41;96409.81;7292979;19;136900;-55
2022/01/19 06:57:14;;;;;;;4.17;3.40;;;;;;;21.96;23.37;96401.81;7282431;19;136957;-56
2022/01/19 06:59:40;;;;;;;4.20;3.90;;;;;;;22.35;23.05;96407.47;7295532;19;137230;-56
2022/01/19 07:02:05;;;;;;;4.93;3.43;;;;;;;22.69;22.65;96399.72;7295753;19;136815;-55
2022/01/19 07:04:31;;;;;;;5.10;3.10;;;;;;;22.91;22.50;96402.09;7296248;19;136844;-56
2022/01/19 07:06:57;;;;;;;4.97;4.30;;;;;;;23.02;22.19;96398.34;7282380;19;141136;-56
2022/01/19 07:09:22;;;;;;;4.33;3.80;;;;;;;23.08;22.18;96398.03;7295244;19;138957;-56
2022/01/19 07:11:48;;;;;;;4.47;4.07;;;;;;;23.08;21.80;96391.91;7294856;19;136762;-56
2022/01/19 07:14:14;;;;;;;4.10;3.70;;;;;;;23.11;21.75;96381.47;7295534;19;136828;-57
2022/01/19 07:16:40;;;;;;;4.50;3.70;;;;;;;23.18;21.96;96380.38;7294072;19;138552;-57
2022/01/19 07:19:06;;;;;;;4.13;3.73;;;;;;;23.32;21.96;96378.72;7282512;19;137574;-56
2022/01/19 07:21:32;;;;;;;6.00;3.83;;;;;;;23.13;22.17;96372.41;7296148;19;138012;-56
2022/01/19 07:23:57;;;;;;;4.63;3.80;;;;;;;23.00;22.25;96374.59;7295403;19;137667;-55
2022/01/19 07:26:23;;;;;;;5.13;3.73;;;;;;;22.91;22.06;96376.22;7296451;19;137809;-56
2022/01/19 07:28:48;;;;;;;4.60;3.87;;;;;;;22.89;22.13;96386.38;7280379;19;141514;-57
2022/01/19 07:31:14;;;;;;;5.00;4.00;;;;;;;22.86;22.26;96383.47;7294660;19;138465;-57
2022/01/19 07:33:40;;;;;;;5.07;4.07;;;;;;;22.88;22.57;96381.31;7295895;19;137777;-56
2022/01/19 07:36:06;;;;;;;3.80;3.50;;;;;;;22.85;22.52;96374.66;7294890;19;137593;-56
2022/01/19 07:38:32;;;;;;;4.70;4.20;;;;;;;22.81;22.66;96386.88;7298984;19;137557;-57
2022/01/19 07:40:57;;;;;;;5.97;4.40;;;;;;;22.81;22.28;96378.88;7287763;19;137592;-59
2022/01/19 07:43:23;;;;;;;4.77;4.37;;;;;;;22.79;22.71;96378.34;7301408;19;136868;-59
2022/01/19 07:45:50;;;;;;;5.73;4.23;;;;;;;22.77;22.22;96385.81;7300359;19;138886;-59
2022/01/19 07:48:16;;;;;;;6.10;4.60;;;;;;;22.76;21.83;96385.03;7301260;19;138030;-57
2022/01/19 07:50:41;;;;;;;4.77;4.20;;;;;;;22.77;22.02;96385.81;7288290;19;136867;-57
2022/01/19 07:53:07;;;;;;;5.67;4.97;;;;;;;22.78;22.04;96384.75;7298256;19;137016;-56
2022/01/19 07:55:33;;;;;;;4.57;4.10;;;;;;;22.78;22.24;96388.22;7301438;19;137366;-58
2022/01/19 07:57:58;;;;;;;4.67;4.27;;;;;;;22.76;21.91;96386.91;7301593;19;136931;-55
2022/01/19 08:00:24;;;;;;;5.73;4.40;;;;;;;22.78;21.92;96392.75;7300684;19;137117;-55
2022/01/19 08:02:49;;;;;;;4.93;4.53;;;;;;;22.79;22.02;96387.16;7288338;19;140259;-56
2022/01/19 08:05:16;;;;;;;5.40;4.83;;;;;;;22.79;22.46;96389.81;7300107;19;137045;-57
2022/01/19 08:07:42;;;;;;;5.63;4.27;;;;;;;22.75;22.24;96383.44;7300132;19;137350;-56
2022/01/19 08:10:09;;;;;;;5.13;4.40;;;;;;;22.76;22.00;96389.56;7299488;19;138590;-56
2022/01/19 08:12:35;;;;;;;5.23;4.60;;;;;;;22.72;22.29;96381.31;7286349;19;137614;-57
2022/01/19 08:15:01;;;;;;;6.63;4.97;;;;;;;22.74;22.28;96386.38;7300059;19;137712;-56
2022/01/19 08:17:28;;;;;;;6.03;4.40;;;;;;;22.73;21.76;96384.78;7301121;19;138214;-57
2022/01/19 08:19:55;;;;;;;5.20;4.70;;;;;;;22.71;21.84;96387.72;7301046;19;136563;-55
2022/01/19 08:22:20;;;;;;;4.90;4.47;;;;;;;22.68;22.42;96379.47;7300747;19;137722;-56
2022/01/19 08:24:46;;;;;;;5.60;5.03;;;;;;;22.64;22.06;96375.72;7287197;19;137380;-56
2022/01/19 08:27:11;;;;;;;5.47;4.97;;;;;;;22.64;22.21;96381.84;7299965;19;137557;-55
2022/01/19 08:29:37;;;;;;;5.40;4.90;;;;;;;22.64;21.69;96378.38;7300605;19;138345;-56
2022/01/19 08:32:05;;;;;;;5.23;4.70;;;;;;;22.56;22.03;96379.75;7299620;19;136850;-56
2022/01/19 08:34:31;;;;;;;5.37;4.87;;;;;;;22.51;22.42;96383.22;7289645;19;138641;-56
2022/01/19 08:36:58;;;;;;;8.80;5.33;;;;;;;22.45;22.20;96378.97;7297705;19;138014;-60
2022/01/19 08:39:24;;;;;;;5.37;4.87;;;;;;;22.40;22.56;96373.66;7298522;19;136845;-57
2022/01/19 08:41:50;;;;;;;6.40;5.30;;;;;;;22.37;22.65;96370.72;7300263;19;137408;-56
2022/01/19 08:44:16;;;;;;;6.73;5.37;;;;;;;22.43;22.56;96373.09;7298619;19;138156;-55
2022/01/19 08:46:43;;;;;;;6.40;5.80;;;;;;;22.46;22.16;96369.09;7285910;19;137861;-57
2022/01/19 08:49:09;;;;;;;9.27;6.80;;;;;;;22.47;22.37;96368.03;7300372;19;136693;-56
2022/01/19 08:51:34;;;;;;;6.60;5.87;;;;;;;22.40;22.01;96365.66;7298896;19;137186;-56
2022/01/19 08:54:00;;;;;;;7.73;7.03;;;;;;;22.44;21.82;96366.72;7300051;19;137916;-56
2022/01/19 08:56:27;;;;;;;7.83;7.03;;;;;;;22.48;22.40;96374.97;7293592;19;137613;-56
2022/01/19 08:58:52;;;;;;;7.87;6.70;;;;;;;22.49;21.95;96368.56;7294201;19;137945;-59
2022/01/19 09:01:18;;;;;;;7.53;6.87;;;;;;;22.50;22.31;96370.16;7301069;19;137949;-55
2022/01/19 09:03:43;;;;;;;7.87;7.03;;;;;;;22.49;22.56;96369.34;7299842;19;137927;-57
2022/01/19 09:06:09;;;;;;;8.00;7.10;;;;;;;22.49;22.35;96366.69;7296908;19;137724;-56
2022/01/19 09:08:34;;;;;;;7.20;6.10;;;;;;;22.48;22.71;96351.00;7285056;19;136819;-55
2022/01/19 09:11:01;;;;;;;6.53;5.93;;;;;;;22.49;22.35;96358.69;7299796;19;136959;-56
2022/01/19 09:13:27;;;;;;;8.63;6.40;;;;;;;22.49;22.44;96361.38;7296543;19;137445;-59
2022/01/19 09:15:53;;;;;;;7.73;6.90;;;;;;;22.49;22.77;96352.59;7298856;19;137330;-57
2022/01/19 09:18:19;;;;;;;8.93;6.67;;;;;;;22.49;23.17;96353.38;7298451;19;137066;-57
2022/01/19 09:20:44;;;;;;;8.30;7.50;;;;;;;22.48;22.62;96349.13;7285295;19;137053;-57
2022/01/19 09:23:10;;;;;;;7.50;6.80;;;;;;;22.48;22.56;96330.47;7298278;19;138208;-57
2022/01/19 09:25:35;;;;;;;8.57;7.53;;;;;;;22.50;22.78;96344.31;7298852;19;137998;-57
2022/01/19 09:28:01;;;;;;;8.03;6.47;;;;;;;22.51;22.88;96340.63;7297875;19;136958;-57
2022/01/19 09:30:27;;;;;;;7.20;6.50;;;;;;;22.55;22.68;96330.22;7284429;19;137448;-57
2022/01/19 09:33:07;;;;;;;5.93;5.33;;;;;;;22.59;23.18;96330.47;7294866;19;137463;-57
2022/01/19 09:35:51;;;;;;;7.10;6.40;;;;;;;22.62;22.61;96329.91;7299014;19;138203;-59
2022/01/19 09:38:22;;;;;;;8.47;6.67;;;;;;;22.65;22.62;96321.38;7298218;19;137520;-56
2022/01/19 09:40:47;;;;;;;8.07;7.27;;;;;;;22.67;22.60;96321.91;7284567;19;136870;-56
2022/01/19 09:43:15;;;;;;;7.57;6.77;;;;;;;22.68;22.34;96312.88;7297596;19;137154;-57
2022/01/19 09:45:41;;;;;;;6.80;6.10;;;;;;;22.69;22.62;96314.47;7298274;19;137110;-58
2022/01/19 09:48:07;;;;;;;7.30;6.50;;;;;;;22.64;22.66;96306.47;7298161;19;136766;-58
2022/01/19 09:50:33;;;;;;;6.60;5.90;;;;;;;22.62;22.33;96298.75;7298952;19;137593;-59
2022/01/19 09:53:03;;;;;;;6.80;6.17;;;;;;;22.61;22.77;96296.38;7283592;19;136835;-57
2022/01/19 09:55:28;;;;;;;6.63;5.97;;;;;;;22.59;22.79;96304.63;7297985;19;138355;-57
2022/01/19 09:57:54;;;;;;;7.57;5.93;;;;;;;22.61;22.73;96299.03;7296481;19;136704;-57
2022/01/19 10:00:20;;;;;;;7.83;6.30;;;;;;;22.61;22.10;96299.03;7296308;19;136969;-57
2022/01/19 10:03:19;;;;;;;6.33;5.77;;;;;;;22.62;22.13;96308.59;7284192;19;137346;-56
2022/01/19 10:06:07;;;;;;;6.10;5.50;;;;;;;22.75;21.98;96308.84;7294953;19;137398;-57
2022/01/19 10:08:42;;;;;;;7.70;6.37;;;;;;;22.82;22.37;96297.91;7296337;19;137276;-58
2022/01/19 10:17:06;;;;;;;7.80;7.10;;;;;;;22.97;21.91;96299.72;7297729;19;136773;-56
2022/01/19 10:19:38;;;;;;;8.43;7.60;;;;;;;22.98;22.27;96298.63;7296609;19;137154;-59
2022/01/19 10:22:06;;;;;;;8.43;7.63;;;;;;;23.00;22.35;96291.16;7296030;19;136951;-56
2022/01/19 10:24:36;;;;;;;8.37;7.67;;;;;;;22.99;22.27;96279.69;7292228;19;137381;-60
2022/01/19 10:27:20;;;;;;;9.57;8.70;;;;;;;22.99;21.78;96285.03;7292886;19;137969;-56
2022/01/19 10:29:49;;;;;;;10.87;9.77;;;;;;;23.00;21.99;96281.28;7292920;19;137075;-56
2022/01/19 10:32:14;;;;;;;11.17;10.07;;;;;;;22.98;21.77;96280.78;7295701;19;136727;-57
2022/01/19 10:34:40;;;;;;;12.10;10.83;;;;;;;22.98;22.49;96280.78;7296455;19;137335;-56
2022/01/19 10:37:06;;;;;;;12.50;11.30;;;;;;;22.99;21.90;96281.56;7281123;19;139437;-56
2022/01/19 10:40:02;;;;;;;13.20;11.90;;;;;;;22.98;22.00;96271.97;7296826;19;136942;-57
2022/01/19 10:42:31;;;;;;;12.97;11.67;;;;;;;23.00;21.83;96267.16;7295084;19;137525;-57
2022/01/19 10:45:04;;;;;;;14.03;12.70;;;;;;;22.99;21.66;96263.72;7297277;19;138229;-60
2022/01/19 10:47:47;;;;;;;14.80;13.30;;;;;;;22.98;22.43;96253.31;7282148;19;138964;-56
2022/01/19 10:50:21;;;;;;;14.50;13.30;;;;;;;22.99;22.27;96247.72;7295034;19;137602;-60
2022/01/19 10:52:48;;;;;;;14.73;13.33;;;;;;;22.97;22.26;96244.53;7295472;19;138060;-57
2022/01/19 10:55:32;;;;;;;13.97;12.73;;;;;;;22.98;22.43;96232.81;7294687;19;137685;-57
2022/01/19 10:58:00;;;;;;;14.70;13.20;;;;;;;22.97;22.37;96225.09;7281809;19;137360;-56
2022/01/19 11:00:29;;;;;;;15.47;14.17;;;;;;;22.96;22.21;96218.94;7295688;19;137365;-57
2022/01/19 11:02:58;;;;;;;15.53;14.03;;;;;;;22.95;22.34;96217.38;7295143;19;136714;-56
2022/01/19 11:05:48;;;;;;;15.60;14.30;;;;;;;22.94;22.02;96210.44;7293496;19;137164;-58
2022/01/19 11:08:15;;;;;;;16.00;14.60;;;;;;;22.95;22.43;96213.91;7295184;19;138832;-57
2022/01/19 11:10:47;;;;;;;16.40;15.10;;;;;;;22.95;22.20;96213.91;7280927;19;136871;-57
2022/01/19 11:13:14;;;;;;;16.10;14.70;;;;;;;22.94;22.03;96205.13;7289765;19;136813;-60
2022/01/19 11:15:42;;;;;;;17.37;15.70;;;;;;;22.91;21.94;96200.34;7295008;19;138044;-60
2022/01/19 11:18:08;;;;;;;17.03;15.53;;;;;;;22.91;21.93;96199.53;7294950;19;138035;-57
2022/01/19 11:20:44;;;;;;;17.73;16.13;;;;;;;22.91;22.13;96192.34;7282880;19;139144;-55
2022/01/19 11:23:31;;;;;;;18.27;16.60;;;;;;;22.93;22.45;96187.53;7295890;19;137501;-58
2022/01/19 11:26:00;;;;;;;17.50;16.00;;;;;;;22.91;22.08;96184.34;7294713;19;137825;-56
2022/01/19 11:28:28;;;;;;;17.77;16.13;;;;;;;22.89;22.22;96183.84;7292613;19;137753;-57
2022/01/19 11:30:55;;;;;;;18.73;17.03;;;;;;;22.89;22.40;96186.50;7280569;19;137174;-57
2022/01/19 11:33:27;;;;;;;17.63;16.07;;;;;;;22.87;22.29;96183.31;7293301;19;139736;-57
2022/01/19 11:35:55;;;;;;;17.73;16.20;;;;;;;22.86;22.49;96176.41;7293707;19;137662;-56
2022/01/19 11:38:39;;;;;;;17.00;15.50;;;;;;;22.85;21.82;96188.13;7295068;19;137560;-59
2022/01/19 11:41:08;;;;;;;18.83;17.23;;;;;;;22.85;22.27;96190.00;7294065;19;136966;-56
2022/01/19 11:43:35;;;;;;;19.13;17.43;;;;;;;22.85;22.43;96188.13;7280102;19;136908;-57
2022/01/19 11:46:03;;;;;;;19.27;17.57;;;;;;;22.84;22.41;96183.84;7294336;19;137037;-56
2022/01/19 11:48:34;;;;;;;18.50;16.90;;;;;;;22.83;22.12;96192.91;7294575;19;137328;-57
2022/01/19 11:51:31;;;;;;;19.00;17.40;;;;;;;22.82;22.46;96186.00;7293472;19;137128;-56
2022/01/19 11:54:28;;;;;;;18.50;16.90;;;;;;;22.85;22.29;96179.34;7278263;19;138084;-55
2022/01/19 11:57:00;;;;;;;16.53;15.10;;;;;;;22.86;22.22;96176.41;7294322;19;137229;-56
2022/01/19 11:59:34;;;;;;;18.63;17.03;;;;;;;22.80;22.54;96166.78;7294301;19;138892;-56
2022/01/19 12:02:24;;;;;;;19.00;17.30;;;;;;;22.73;22.99;96164.44;7295287;19;136684;-56
2022/01/19 12:05:00;;;;;;;19.83;18.10;;;;;;;22.70;22.61;96159.66;7279561;19;137064;-57
2022/01/19 12:07:48;;;;;;;19.37;17.57;;;;;;;22.68;22.85;96156.50;7294065;19;137554;-56
2022/01/19 12:10:22;;;;;;;19.93;18.30;;;;;;;22.66;22.57;96155.94;7292830;19;137313;-58
2022/01/19 12:16:02;;;;;;;19.20;17.70;;;;;;;22.63;22.92;96145.06;7280245;19;136657;-57
2022/01/19 12:18:39;;;;;;;19.33;17.70;;;;;;;22.62;22.47;96141.59;7293102;19;137048;-58
2022/01/19 12:21:06;;;;;;;19.90;18.17;;;;;;;22.62;22.64;96138.13;7293168;19;137619;-55
2022/01/19 12:23:35;;;;;;;19.13;17.53;;;;;;;22.61;22.91;96132.00;7295298;19;136506;-55
2022/01/19 12:26:03;;;;;;;18.87;17.27;;;;;;;22.61;22.85;96136.53;7284430;19;139929;-59
2022/01/19 12:28:51;;;;;;;20.50;18.80;;;;;;;22.60;23.05;96130.41;7300215;19;138007;-59
2022/01/19 12:31:30;;;;;;;20.37;18.67;;;;;;;22.60;22.33;96130.41;7300692;19;138387;-57
2022/01/19 12:34:04;;;;;;;19.70;18.00;;;;;;;22.61;22.38;96120.56;7297510;19;137741;-56
2022/01/19 12:36:48;;;;;;;19.27;17.67;;;;;;;22.59;22.70;96122.72;7300534;19;137380;-56
2022/01/19 12:39:26;;;;;;;19.13;17.50;;;;;;;22.58;22.48;96116.59;7295798;19;137685;-58
2022/01/19 12:42:00;;;;;;;19.33;17.63;;;;;;;22.58;22.61;96111.25;7298570;19;137584;-59
2022/01/19 12:44:34;;;;;;;19.80;18.13;;;;;;;22.57;23.10;96109.66;7300853;19;137454;-56
2022/01/19 12:47:04;;;;;;;20.40;18.50;;;;;;;22.57;22.68;96098.22;7299908;19;136576;-56
2022/01/19 12:49:31;;;;;;;19.03;17.40;;;;;;;22.56;22.49;96100.09;7287082;19;139402;-56
2022/01/19 12:51:58;;;;;;;18.27;16.67;;;;;;;22.54;22.63;96104.91;7299350;19;138343;-57
2022/01/19 12:54:30;;;;;;;18.50;16.80;;;;;;;22.54;22.88;96096.91;7300010;19;136984;-58